Aviation Digital Data Service (ADDS)

Output produced by METARs form (1008 UTC 25 October 2014)
found at http://aviationweather.gov/adds/metars/
 
KPOU 250541Z 2506/2606 00000KT P6SM SCT250 
     TEMPO 2506/2510 3SM BR SCT002 
     FM251000 00000KT 3SM BR SCT002 SCT250 
     TEMPO 2510/2512 1SM BR BKN002 
     FM251200 VRB03KT P6SM SCT250 
     FM251600 25006KT P6SM SCT035 
     FM252000 24006KT P6SM BKN040 BKN080 
     FM252300 25006KT P6SM BKN040